createdAt,value
2022-09-25T00:01:06.287Z,13.70
2022-09-25T00:03:33.644Z,13.70
2022-09-25T00:06:15.574Z,13.60
2022-09-25T00:08:43.086Z,13.90
2022-09-25T00:11:20.778Z,13.70
2022-09-25T00:13:48.748Z,13.80
2022-09-25T00:16:20.438Z,13.60
2022-09-25T00:19:06.687Z,13.30
2022-09-25T00:21:35.202Z,13.80
2022-09-25T00:24:10.517Z,13.80
2022-09-25T00:26:41.204Z,13.70
2022-09-25T00:29:14.442Z,13.70
2022-09-25T00:31:41.331Z,13.50
2022-09-25T00:34:08.525Z,13.40
2022-09-25T00:36:35.528Z,13.60
2022-09-25T00:39:02.412Z,13.50
2022-09-25T00:41:33.461Z,13.60
2022-09-25T00:44:03.319Z,13.60
2022-09-25T00:46:32.997Z,13.70
2022-09-25T00:49:16.372Z,13.70
2022-09-25T00:51:49.228Z,13.70
2022-09-25T00:54:27.381Z,13.60
2022-09-25T00:56:57.063Z,13.60
2022-09-25T00:59:31.538Z,13.60
2022-09-25T01:01:59.378Z,13.70
2022-09-25T01:04:28.992Z,13.60
2022-09-25T01:06:57.054Z,13.70
2022-09-25T01:09:24.797Z,13.70
2022-09-25T01:11:51.699Z,13.60
2022-09-25T01:14:18.696Z,13.60
2022-09-25T01:17:07.426Z,13.50
2022-09-25T01:19:58.353Z,13.50
2022-09-25T01:23:02.722Z,13.50
2022-09-25T01:26:15.947Z,13.50
2022-09-25T01:29:06.838Z,13.50
2022-09-25T01:31:48.139Z,13.50
2022-09-25T01:34:41.412Z,13.50
2022-09-25T01:37:30.185Z,13.40
2022-09-25T01:40:17.430Z,13.50
2022-09-25T01:42:55.960Z,13.60
2022-09-25T01:45:31.228Z,13.60
2022-09-25T01:48:00.840Z,13.60
2022-09-25T01:50:46.641Z,13.60
2022-09-25T01:53:20.452Z,13.40
2022-09-25T01:55:54.562Z,13.60
2022-09-25T01:58:43.301Z,13.50
2022-09-25T02:01:17.098Z,13.50
2022-09-25T02:03:51.571Z,13.50
2022-09-25T02:06:21.045Z,13.50
2022-09-25T02:09:23.167Z,13.40
2022-09-25T02:11:56.566Z,13.40
2022-09-25T02:14:39.172Z,13.50
2022-09-25T02:17:12.480Z,13.40
2022-09-25T02:19:58.505Z,13.50
2022-09-25T02:22:31.411Z,13.50
2022-09-25T02:25:11.574Z,13.10
2022-09-25T02:27:38.471Z,13.40
2022-09-25T02:30:06.181Z,13.50
2022-09-25T02:32:33.771Z,13.50
2022-09-25T02:35:01.004Z,13.40
2022-09-25T02:37:30.128Z,13.40
2022-09-25T02:40:02.100Z,13.30
2022-09-25T02:42:40.867Z,13.50
2022-09-25T02:45:51.147Z,13.20
2022-09-25T02:48:46.845Z,13.30
2022-09-25T02:51:31.123Z,13.50
2022-09-25T02:54:21.127Z,13.40
2022-09-25T02:57:08.587Z,13.40
2022-09-25T02:59:44.135Z,13.40
2022-09-25T03:02:13.061Z,13.40
2022-09-25T03:04:41.310Z,13.20
2022-09-25T03:07:08.421Z,13.30
2022-09-25T03:09:39.247Z,13.40
2022-09-25T03:12:06.185Z,13.30
2022-09-25T03:14:33.098Z,13.40
2022-09-25T03:17:05.777Z,13.40
2022-09-25T03:19:34.918Z,13.50
2022-09-25T03:22:03.051Z,13.40
2022-09-25T03:24:30.035Z,13.30
2022-09-25T03:26:57.002Z,13.30
2022-09-25T03:29:23.906Z,13.40
2022-09-25T03:31:50.802Z,13.40
2022-09-25T03:34:19.024Z,13.40
2022-09-25T03:36:48.980Z,13.20
2022-09-25T03:39:17.896Z,13.30
2022-09-25T03:41:45.410Z,13.30
2022-09-25T03:44:12.685Z,13.30
2022-09-25T03:46:39.859Z,13.40
2022-09-25T03:49:07.466Z,13.40
2022-09-25T03:51:35.277Z,13.30
2022-09-25T03:54:04.115Z,13.30
2022-09-25T03:56:31.237Z,13.30
2022-09-25T03:58:58.673Z,13.30
2022-09-25T04:01:27.838Z,13.30
2022-09-25T04:03:54.835Z,13.30
2022-09-25T04:06:25.929Z,13.30
2022-09-25T04:08:53.680Z,13.80
2022-09-25T04:11:24.012Z,13.40
2022-09-25T04:13:50.986Z,13.30
2022-09-25T04:16:19.401Z,13.30
2022-09-25T04:18:46.378Z,13.40
2022-09-25T04:21:14.550Z,13.20
2022-09-25T04:23:41.930Z,13.30
2022-09-25T04:26:09.363Z,13.40
2022-09-25T04:28:36.877Z,13.30
2022-09-25T04:31:04.047Z,13.40
2022-09-25T04:33:46.548Z,13.30
2022-09-25T04:36:16.777Z,13.30
2022-09-25T04:38:44.040Z,13.30
2022-09-25T04:43:40.920Z,13.40
2022-09-25T04:46:12.423Z,13.30
2022-09-25T04:48:46.026Z,13.20
2022-09-25T04:51:13.193Z,13.30
2022-09-25T04:53:40.623Z,13.30
2022-09-25T04:56:14.590Z,12.90
2022-09-25T04:58:49.250Z,13.10
2022-09-25T05:01:18.828Z,13.20
2022-09-25T05:03:50.258Z,13.20
2022-09-25T05:06:17.363Z,13.10
2022-09-25T05:08:44.290Z,13.10
2022-09-25T05:11:11.432Z,13.30
2022-09-25T05:13:38.461Z,13.30
2022-09-25T05:16:05.725Z,13.30
2022-09-25T05:18:32.689Z,13.50
2022-09-25T05:21:04.831Z,13.20
2022-09-25T05:23:31.730Z,13.10
2022-09-25T05:26:00.666Z,13.30
2022-09-25T05:28:31.172Z,13.30
2022-09-25T05:31:03.732Z,13.40
2022-09-25T05:33:35.310Z,13.20
2022-09-25T05:36:07.184Z,13.00
2022-09-25T05:38:39.606Z,13.20
2022-09-25T05:41:09.108Z,14.10
2022-09-25T05:43:40.939Z,13.60
2022-09-25T05:46:08.308Z,13.10
2022-09-25T05:48:35.659Z,13.20
2022-09-25T05:51:02.672Z,13.30
2022-09-25T05:53:30.953Z,13.20
2022-09-25T05:56:01.349Z,13.20
2022-09-25T05:58:30.513Z,13.30
2022-09-25T06:01:03.179Z,13.30
2022-09-25T06:03:30.716Z,13.00
2022-09-25T06:05:59.186Z,13.10
2022-09-25T06:08:27.155Z,13.20
2022-09-25T06:10:54.777Z,13.20
2022-09-25T06:13:23.340Z,13.10
2022-09-25T06:15:52.419Z,13.00
2022-09-25T06:18:22.391Z,12.30
2022-09-25T06:20:50.168Z,12.90
2022-09-25T06:23:18.420Z,13.20
2022-09-25T06:25:45.580Z,13.20
2022-09-25T06:28:12.639Z,13.40
2022-09-25T06:30:39.859Z,14.50
2022-09-25T06:33:12.786Z,13.20
2022-09-25T06:35:45.820Z,13.60
2022-09-25T06:38:14.705Z,13.10
2022-09-25T06:40:42.570Z,13.10
2022-09-25T06:43:13.098Z,13.20
2022-09-25T06:48:13.114Z,13.20
2022-09-25T06:50:48.199Z,13.30
2022-09-25T06:53:17.107Z,14.20
2022-09-25T06:55:45.235Z,13.20
2022-09-25T06:58:19.703Z,13.80
2022-09-25T07:00:51.937Z,13.20
2022-09-25T07:03:37.832Z,13.30
2022-09-25T07:06:07.686Z,13.30
2022-09-25T07:08:35.121Z,12.80
2022-09-25T07:11:02.226Z,12.30
2022-09-25T07:13:33.432Z,13.90
2022-09-25T07:16:03.372Z,13.20
2022-09-25T07:18:30.869Z,13.40
2022-09-25T07:21:11.595Z,13.20
2022-09-25T07:23:38.832Z,13.20
2022-09-25T07:26:21.750Z,13.00
2022-09-25T07:31:26.265Z,13.60
2022-09-25T07:36:21.537Z,13.30
2022-09-25T07:38:53.335Z,13.20
2022-09-25T07:41:22.650Z,13.30
2022-09-25T07:44:11.940Z,13.20
2022-09-25T07:46:44.866Z,12.50
2022-09-25T07:49:12.863Z,13.30
2022-09-25T07:51:39.884Z,13.20
2022-09-25T07:54:07.063Z,13.20
2022-09-25T07:56:38.246Z,14.70
2022-09-25T07:59:05.402Z,13.20
2022-09-25T08:01:32.513Z,13.30
2022-09-25T08:03:59.655Z,13.30
2022-09-25T08:06:26.615Z,13.10
2022-09-25T08:08:53.543Z,13.00
2022-09-25T08:11:20.503Z,13.30
2022-09-25T08:13:50.337Z,13.30
2022-09-25T08:16:20.020Z,13.40
2022-09-25T08:18:47.641Z,12.40
2022-09-25T08:21:18.268Z,13.40
2022-09-25T08:23:51.083Z,13.40
2022-09-25T08:26:21.041Z,13.40
2022-09-25T08:28:48.365Z,13.50
2022-09-25T08:31:15.751Z,14.00
2022-09-25T08:33:46.951Z,13.30
2022-09-25T08:36:14.387Z,13.60
2022-09-25T08:38:41.295Z,13.50
2022-09-25T08:41:32.328Z,13.30
2022-09-25T08:44:06.331Z,13.30
2022-09-25T08:47:01.891Z,13.20
2022-09-25T08:49:37.339Z,13.10
2022-09-25T08:52:08.756Z,13.60
2022-09-25T08:54:36.496Z,13.20
2022-09-25T08:57:37.950Z,13.80
2022-09-25T09:00:20.585Z,13.40
2022-09-25T09:02:55.609Z,13.40
2022-09-25T09:05:31.660Z,13.50
2022-09-25T09:08:25.265Z,13.50
2022-09-25T09:10:59.132Z,13.90
2022-09-25T09:13:44.253Z,13.60
2022-09-25T09:16:23.288Z,13.60
2022-09-25T09:18:50.728Z,13.80
2022-09-25T09:21:27.850Z,13.60
2022-09-25T09:24:17.956Z,13.40
2022-09-25T09:26:58.898Z,13.50
2022-09-25T09:30:00.319Z,13.70
2022-09-25T09:33:10.522Z,13.50
2022-09-25T09:35:43.655Z,13.40
2022-09-25T09:38:36.765Z,13.20
2022-09-25T09:41:16.123Z,13.60
2022-09-25T09:44:07.663Z,13.60
2022-09-25T09:47:07.902Z,13.60
2022-09-25T09:49:45.169Z,13.60
2022-09-25T09:52:17.377Z,13.80
2022-09-25T09:55:01.082Z,13.70
2022-09-25T09:57:43.965Z,13.90
2022-09-25T10:00:17.740Z,13.90
2022-09-25T10:02:59.489Z,13.70
2022-09-25T10:05:37.081Z,13.70
2022-09-25T10:08:04.431Z,14.80
2022-09-25T10:10:42.116Z,13.60
2022-09-25T10:13:25.852Z,13.70
2022-09-25T10:16:05.149Z,13.70
2022-09-25T10:18:46.548Z,13.70
2022-09-25T10:21:24.355Z,13.70
2022-09-25T10:23:55.062Z,13.70
2022-09-25T10:26:39.734Z,13.80
2022-09-25T10:29:22.094Z,13.80
2022-09-25T10:34:28.134Z,13.90
2022-09-25T10:36:55.417Z,13.90
2022-09-25T10:39:48.899Z,13.90
2022-09-25T10:43:24.221Z,14.00
2022-09-25T10:46:14.068Z,13.90
2022-09-25T10:49:01.696Z,13.90
2022-09-25T10:51:29.305Z,14.50
2022-09-25T10:54:16.836Z,14.10
2022-09-25T10:56:44.017Z,14.00
2022-09-25T10:59:20.446Z,13.90
2022-09-25T11:01:50.944Z,13.70
2022-09-25T11:04:23.540Z,12.90
2022-09-25T11:06:58.122Z,13.90
2022-09-25T11:09:32.266Z,12.00
2022-09-25T11:14:55.297Z,14.00
2022-09-25T11:17:41.162Z,14.00
2022-09-25T11:20:20.464Z,14.90
2022-09-25T11:23:14.938Z,13.80
2022-09-25T11:25:52.980Z,14.10
2022-09-25T11:28:41.097Z,13.90
2022-09-25T11:31:25.872Z,14.10
2022-09-25T11:34:17.134Z,14.20
2022-09-25T11:40:04.011Z,14.10
2022-09-25T11:42:55.195Z,14.10
2022-09-25T11:45:51.673Z,14.10
2022-09-25T11:48:37.249Z,14.20
2022-09-25T11:51:22.471Z,14.90
2022-09-25T11:54:34.489Z,13.90
2022-09-25T11:57:34.647Z,14.50
2022-09-25T12:00:21.604Z,14.90
2022-09-25T12:03:19.338Z,14.10
2022-09-25T12:09:19.561Z,14.50
2022-09-25T12:12:22.499Z,14.30
2022-09-25T12:15:17.857Z,13.80
2022-09-25T12:18:07.608Z,14.80
2022-09-25T12:20:49.700Z,14.70
2022-09-25T12:23:41.756Z,14.70
2022-09-25T12:26:51.660Z,15.90
2022-09-25T12:29:40.099Z,14.90
2022-09-25T12:32:20.670Z,15.30
2022-09-25T12:35:05.136Z,15.40
2022-09-25T12:38:00.233Z,15.40
2022-09-25T12:40:45.647Z,15.20
2022-09-25T12:43:28.838Z,15.10
2022-09-25T12:46:27.951Z,14.10
2022-09-25T12:48:57.989Z,15.00
2022-09-25T12:51:40.697Z,14.80
2022-09-25T12:54:38.354Z,14.80
2022-09-25T12:57:33.372Z,14.90
2022-09-25T13:00:09.458Z,14.70
2022-09-25T13:03:17.214Z,14.50
2022-09-25T13:05:51.536Z,14.80
2022-09-25T13:08:35.255Z,14.80
2022-09-25T13:11:10.689Z,14.10
2022-09-25T13:13:45.552Z,15.00
2022-09-25T13:16:16.016Z,14.70
2022-09-25T13:19:11.510Z,16.00
2022-09-25T13:21:45.585Z,15.70
2022-09-25T13:24:16.000Z,15.60
2022-09-25T13:26:55.107Z,15.60
2022-09-25T13:29:27.967Z,15.60
2022-09-25T13:32:20.493Z,16.00
2022-09-25T13:34:51.920Z,15.70
2022-09-25T13:37:18.822Z,15.60
2022-09-25T13:40:06.788Z,15.40
2022-09-25T13:42:45.436Z,15.10
2022-09-25T13:48:07.922Z,15.10
2022-09-25T13:53:24.480Z,15.20
2022-09-25T13:55:57.279Z,15.10
2022-09-25T13:58:27.878Z,15.30
2022-09-25T14:00:58.876Z,14.20
2022-09-25T14:03:37.103Z,15.30
2022-09-25T14:06:05.146Z,15.30
2022-09-25T14:08:34.055Z,15.30
2022-09-25T14:11:05.426Z,15.40
2022-09-25T14:13:34.175Z,16.30
2022-09-25T14:16:05.196Z,16.80
2022-09-25T14:18:54.215Z,15.80
2022-09-25T14:21:22.701Z,15.50
2022-09-25T14:23:55.578Z,15.30
2022-09-25T14:26:28.844Z,15.20
2022-09-25T14:28:58.100Z,15.60
2022-09-25T14:31:39.677Z,15.70
2022-09-25T14:34:21.494Z,15.50
2022-09-25T14:37:36.283Z,15.60
2022-09-25T14:40:19.876Z,15.50
2022-09-25T14:43:41.185Z,15.40
2022-09-25T14:46:18.196Z,15.30
2022-09-25T14:51:43.712Z,14.50
2022-09-25T14:54:22.056Z,15.30
2022-09-25T14:56:54.774Z,15.30
2022-09-25T14:59:42.552Z,15.20
2022-09-25T15:02:24.038Z,15.30
2022-09-25T15:04:51.087Z,15.20
2022-09-25T15:07:23.699Z,15.20
2022-09-25T15:09:55.376Z,14.90
2022-09-25T15:12:34.064Z,15.20
2022-09-25T15:15:27.419Z,15.20
2022-09-25T15:17:59.569Z,15.10
2022-09-25T15:20:34.781Z,15.20
2022-09-25T15:25:37.553Z,15.10
2022-09-25T15:28:26.736Z,15.00
2022-09-25T15:31:00.175Z,15.10
2022-09-25T15:36:22.781Z,14.90
2022-09-25T15:39:01.158Z,15.20
2022-09-25T15:41:29.322Z,15.10
2022-09-25T15:44:30.590Z,15.20
2022-09-25T15:47:01.478Z,15.00
2022-09-25T15:52:12.272Z,15.20
2022-09-25T15:54:44.461Z,15.80
2022-09-25T16:00:10.962Z,16.00
2022-09-25T16:03:06.599Z,15.10
2022-09-25T16:05:36.339Z,15.20
2022-09-25T16:08:25.193Z,15.00
2022-09-25T16:11:26.615Z,14.90
2022-09-25T16:16:47.584Z,15.40
2022-09-25T16:19:26.521Z,15.00
2022-09-25T16:21:54.725Z,15.20
2022-09-25T16:24:29.587Z,15.10
2022-09-25T16:27:01.076Z,14.80
2022-09-25T16:29:31.771Z,15.00
2022-09-25T16:32:06.344Z,15.00
2022-09-25T16:34:40.486Z,15.10
2022-09-25T16:37:23.838Z,14.80
2022-09-25T16:40:34.093Z,15.00
2022-09-25T16:43:01.728Z,15.00
2022-09-25T16:45:34.797Z,15.00
2022-09-25T16:48:31.386Z,14.90
2022-09-25T16:51:01.300Z,15.00
2022-09-25T16:53:29.405Z,15.00
2022-09-25T16:55:58.025Z,14.90
2022-09-25T16:58:25.244Z,14.90
2022-09-25T17:00:54.493Z,14.90
2022-09-25T17:03:21.523Z,15.00
2022-09-25T17:05:48.480Z,14.90
2022-09-25T17:10:52.264Z,15.00
2022-09-25T17:13:27.134Z,15.00
2022-09-25T17:15:55.756Z,14.80
2022-09-25T17:18:23.131Z,14.80
2022-09-25T17:20:57.631Z,14.70
2022-09-25T17:23:25.822Z,14.70
2022-09-25T17:26:16.336Z,14.80
2022-09-25T17:28:43.355Z,14.70
2022-09-25T17:31:18.893Z,14.80
2022-09-25T17:33:47.904Z,14.70
2022-09-25T17:36:14.891Z,14.80
2022-09-25T17:38:41.844Z,14.70
2022-09-25T17:41:34.433Z,14.40
2022-09-25T17:46:33.632Z,14.90
2022-09-25T17:51:29.931Z,14.40
2022-09-25T17:53:59.324Z,14.50
2022-09-25T17:58:58.552Z,14.70
2022-09-25T18:01:56.020Z,14.50
2022-09-25T18:04:25.760Z,14.30
2022-09-25T18:06:53.332Z,14.40
2022-09-25T18:09:21.059Z,14.50
2022-09-25T18:11:48.629Z,14.70
2022-09-25T18:14:16.806Z,14.20
2022-09-25T18:16:44.945Z,14.80
2022-09-25T18:19:38.734Z,14.40
2022-09-25T18:22:19.088Z,14.50
2022-09-25T18:24:54.811Z,14.40
2022-09-25T18:27:34.062Z,14.40
2022-09-25T18:30:04.384Z,14.50
2022-09-25T18:32:33.111Z,14.40
2022-09-25T18:35:07.952Z,14.60
2022-09-25T18:37:36.893Z,14.40
2022-09-25T18:40:04.950Z,15.20
2022-09-25T18:42:32.303Z,14.40
2022-09-25T18:45:01.056Z,14.50
2022-09-25T18:47:28.727Z,14.40
2022-09-25T18:49:56.518Z,14.50
2022-09-25T18:52:24.946Z,14.30
2022-09-25T18:54:53.040Z,14.50
2022-09-25T18:57:20.039Z,14.10
2022-09-25T18:59:46.963Z,14.30
2022-09-25T19:02:26.194Z,14.30
2022-09-25T19:04:55.391Z,14.50
2022-09-25T19:07:24.144Z,14.20
2022-09-25T19:09:55.272Z,14.30
2022-09-25T19:12:22.304Z,14.20
2022-09-25T19:14:49.593Z,14.50
2022-09-25T19:17:18.588Z,14.90
2022-09-25T19:19:45.939Z,14.30
2022-09-25T19:22:19.213Z,14.40
2022-09-25T19:24:47.991Z,14.30
2022-09-25T19:27:17.103Z,14.40
2022-09-25T19:29:47.707Z,14.40
2022-09-25T19:32:17.444Z,14.30
2022-09-25T19:34:44.919Z,14.20
2022-09-25T19:37:12.255Z,14.40
2022-09-25T19:39:57.657Z,15.40
2022-09-25T19:42:27.296Z,13.70
2022-09-25T19:44:56.410Z,14.30
2022-09-25T19:47:23.941Z,14.20
2022-09-25T19:49:51.062Z,14.10
2022-09-25T19:52:20.463Z,14.30
2022-09-25T19:54:47.441Z,14.20
2022-09-25T19:57:15.066Z,14.10
2022-09-25T19:59:42.317Z,14.10
2022-09-25T20:02:10.286Z,13.20
2022-09-25T20:04:37.317Z,14.00
2022-09-25T20:07:04.364Z,14.30
2022-09-25T20:09:36.034Z,13.50
2022-09-25T20:12:21.741Z,14.10
2022-09-25T20:14:49.714Z,14.20
2022-09-25T20:17:16.659Z,14.10
2022-09-25T20:19:46.774Z,14.10
2022-09-25T20:22:14.055Z,14.10
2022-09-25T20:24:40.978Z,14.20
2022-09-25T20:27:07.888Z,14.20
2022-09-25T20:29:34.918Z,14.10
2022-09-25T20:32:01.849Z,14.00
2022-09-25T20:34:28.808Z,14.10
2022-09-25T20:36:55.950Z,13.80
2022-09-25T20:39:23.195Z,14.10
2022-09-25T20:41:51.053Z,14.20
2022-09-25T20:44:18.252Z,14.00
2022-09-25T20:46:45.140Z,14.00
2022-09-25T20:49:12.178Z,14.00
2022-09-25T20:51:40.132Z,14.20
2022-09-25T20:54:09.113Z,14.10
2022-09-25T20:56:38.105Z,14.00
2022-09-25T20:59:05.876Z,14.00
2022-09-25T21:01:36.986Z,14.10
2022-09-25T21:04:08.016Z,14.90
2022-09-25T21:06:37.922Z,14.00
2022-09-25T21:09:16.358Z,14.00
2022-09-25T21:11:43.534Z,14.00
2022-09-25T21:14:17.348Z,14.80
2022-09-25T21:16:44.506Z,13.80
2022-09-25T21:19:14.339Z,13.90
2022-09-25T21:21:41.734Z,13.60
2022-09-25T21:24:12.800Z,13.90
2022-09-25T21:26:39.777Z,13.80
2022-09-25T21:29:08.007Z,13.90
2022-09-25T21:31:38.497Z,13.80
2022-09-25T21:34:10.534Z,13.80
2022-09-25T21:36:38.967Z,14.90
2022-09-25T21:39:07.233Z,13.80
2022-09-25T21:41:34.643Z,13.80
2022-09-25T21:44:05.717Z,13.80
2022-09-25T21:46:34.789Z,13.50
2022-09-25T21:49:05.834Z,13.70
2022-09-25T21:51:37.895Z,13.60
2022-09-25T21:54:07.426Z,13.50
2022-09-25T21:56:34.713Z,12.70
2022-09-25T21:59:08.242Z,13.80
2022-09-25T22:01:38.453Z,14.80
2022-09-25T22:04:07.544Z,13.80
2022-09-25T22:06:38.704Z,13.90
2022-09-25T22:09:18.821Z,13.70
2022-09-25T22:11:46.784Z,13.70
2022-09-25T22:14:16.285Z,13.80
2022-09-25T22:16:47.291Z,15.10
2022-09-25T22:19:34.614Z,13.40
2022-09-25T22:22:01.500Z,13.40
2022-09-25T22:24:28.384Z,13.40
2022-09-25T22:26:56.589Z,13.30
2022-09-25T22:29:24.360Z,13.60
2022-09-25T22:31:51.736Z,13.60
2022-09-25T22:34:25.740Z,13.00
2022-09-25T22:36:59.109Z,13.00
2022-09-25T22:39:28.300Z,13.20
2022-09-25T22:41:56.144Z,13.10
2022-09-25T22:44:23.487Z,13.40
2022-09-25T22:46:50.572Z,13.50
2022-09-25T22:49:17.902Z,13.60
2022-09-25T22:51:44.849Z,13.50
2022-09-25T22:54:15.904Z,13.30
2022-09-25T22:56:43.726Z,13.60
2022-09-25T22:59:17.791Z,13.80
2022-09-25T23:01:52.033Z,13.50
2022-09-25T23:04:22.839Z,13.10
2022-09-25T23:06:50.505Z,13.40
2022-09-25T23:09:21.603Z,13.20
2022-09-25T23:11:48.943Z,13.40
2022-09-25T23:14:21.462Z,14.20
2022-09-25T23:16:50.720Z,13.20
2022-09-25T23:19:20.148Z,13.70
2022-09-25T23:21:47.640Z,13.30
2022-09-25T23:24:17.601Z,13.30
2022-09-25T23:26:45.842Z,13.20
2022-09-25T23:29:15.809Z,13.40
2022-09-25T23:31:43.775Z,14.10
2022-09-25T23:34:11.146Z,13.30
2022-09-25T23:36:38.600Z,13.30
2022-09-25T23:39:08.634Z,13.40
2022-09-25T23:41:38.694Z,13.30
2022-09-25T23:44:09.424Z,12.90
2022-09-25T23:46:40.079Z,13.00
2022-09-25T23:49:07.498Z,13.40
2022-09-25T23:51:34.704Z,14.00
2022-09-25T23:54:05.001Z,13.20
2022-09-25T23:56:34.701Z,13.30
2022-09-25T23:59:03.360Z,13.50
